Terminal Aerodrome Forecast
Issued by NWS

Home | Current Version | Previous Version | Text Only | Print | Product List | Glossary On
Versions: 1 2 3 4 5 6 7 8 9 10 11 12 13 14 15 16 17 18 19 20
000
FTUS41 KPBZ 271100
TAFMGW
TAF
KMGW 271120Z 2712/2812 33003KT P6SM BKN015 OVC022
     FM271500 31008KT P6SM BKN025
     FM271600 31007KT P6SM SCT035 BKN050=

USA.gov is the U.S. government's official web portal to all federal, state and local government web resources and services.